EmailTwitter


Surface observations / France / LFPO (07149)

Regions: Quebec | Canada | USA | Europe | France | UK | Elsewhere
Station
Display
Info & Location for LFPO (07149) | Help decoding METAR

Weather Conditions observed on 2019/02/16 at 14:00 UTC at PARIS/ORLY, FR (LFPO)

Temperature: 16.0 Celsius.

Dewpoint: 4.0 Celsius.

Relative Humidity: 45%

Winds: South at 15 km/h or 8 knots.

Mean Sea level Pressure: 102.60 kilopascals.

Coded METAR:

LFPO 161400Z 19008KT 150V220 CAVOK 16/04 Q1026 NOSIG=